createdAt,value
2023-04-01T00:01:24.930Z,8.70
2023-04-01T00:03:52.029Z,8.60
2023-04-01T00:06:20.081Z,8.50
2023-04-01T00:08:47.610Z,8.50
2023-04-01T00:11:15.755Z,8.60
2023-04-01T00:13:43.498Z,8.60
2023-04-01T00:16:20.869Z,8.40
2023-04-01T00:18:50.244Z,8.30
2023-04-01T00:21:17.703Z,8.20
2023-04-01T00:23:44.937Z,8.30
2023-04-01T00:26:13.268Z,8.20
2023-04-01T00:28:41.168Z,8.20
2023-04-01T00:31:09.250Z,8.30
2023-04-01T00:33:36.683Z,8.30
2023-04-01T00:36:13.868Z,8.20
2023-04-01T00:38:42.499Z,8.20
2023-04-01T00:41:10.721Z,8.20
2023-04-01T00:43:37.606Z,8.10
2023-04-01T00:46:04.454Z,8.10
2023-04-01T00:48:37.210Z,8.10
2023-04-01T00:51:15.446Z,7.90
2023-04-01T00:53:49.219Z,8.00
2023-04-01T00:56:23.488Z,7.90
2023-04-01T00:58:55.962Z,7.90
2023-04-01T01:01:25.151Z,7.80
2023-04-01T01:03:52.300Z,7.90
2023-04-01T01:07:10.611Z,7.80
2023-04-01T01:09:53.631Z,7.80
2023-04-01T01:12:28.886Z,7.60
2023-04-01T01:15:08.190Z,7.60
2023-04-01T01:17:44.067Z,7.60
2023-04-01T01:20:28.833Z,7.50
2023-04-01T01:23:21.090Z,7.60
2023-04-01T01:26:18.964Z,7.60
2023-04-01T01:29:01.252Z,7.60
2023-04-01T01:32:05.660Z,7.50
2023-04-01T01:35:06.776Z,7.50
2023-04-01T01:37:34.664Z,7.30
2023-04-01T01:40:06.095Z,7.40
2023-04-01T01:42:37.926Z,7.30
2023-04-01T01:45:07.001Z,7.30
2023-04-01T01:47:36.095Z,7.30
2023-04-01T01:50:05.864Z,7.20
2023-04-01T01:52:32.704Z,7.20
2023-04-01T01:54:59.683Z,7.30
2023-04-01T01:57:39.226Z,7.20
2023-04-01T02:00:14.503Z,7.40
2023-04-01T02:02:43.887Z,7.20
2023-04-01T02:05:16.637Z,7.10
2023-04-01T02:07:49.289Z,7.20
2023-04-01T02:10:16.456Z,7.20
2023-04-01T02:12:47.431Z,7.10
2023-04-01T02:15:16.133Z,7.00
2023-04-01T02:17:47.454Z,6.80
2023-04-01T02:20:18.640Z,6.90
2023-04-01T02:22:52.055Z,6.90
2023-04-01T02:25:23.503Z,6.80
2023-04-01T02:27:50.692Z,6.80
2023-04-01T02:30:18.451Z,6.80
2023-04-01T02:32:47.156Z,6.80
2023-04-01T02:35:16.373Z,6.80
2023-04-01T02:37:44.731Z,6.80
2023-04-01T02:40:17.243Z,6.80
2023-04-01T02:42:44.450Z,6.70
2023-04-01T02:45:12.048Z,6.70
2023-04-01T02:47:38.900Z,6.70
2023-04-01T02:50:07.243Z,6.60
2023-04-01T02:52:34.458Z,6.60
2023-04-01T02:55:01.391Z,6.50
2023-04-01T02:57:28.253Z,6.60
2023-04-01T02:59:55.473Z,6.50
2023-04-01T03:02:22.535Z,6.50
2023-04-01T03:04:49.571Z,6.40
2023-04-01T03:07:16.385Z,6.40
2023-04-01T03:09:43.242Z,6.40
2023-04-01T03:12:10.254Z,6.30
2023-04-01T03:14:37.083Z,6.30
2023-04-01T03:17:03.978Z,6.30
2023-04-01T03:19:30.892Z,6.30
2023-04-01T03:21:57.653Z,6.50
2023-04-01T03:24:24.487Z,6.20
2023-04-01T03:26:51.363Z,6.20
2023-04-01T03:29:18.299Z,6.20
2023-04-01T03:31:45.518Z,6.20
2023-04-01T03:34:12.538Z,6.20
2023-04-01T03:36:39.380Z,6.30
2023-04-01T03:39:06.205Z,6.30
2023-04-01T03:41:34.024Z,6.20
2023-04-01T03:44:00.849Z,6.20
2023-04-01T03:46:27.778Z,6.30
2023-04-01T03:48:54.611Z,6.20
2023-04-01T03:51:21.638Z,6.20
2023-04-01T03:53:49.287Z,6.10
2023-04-01T03:56:16.094Z,6.00
2023-04-01T03:58:42.911Z,6.10
2023-04-01T04:01:24.288Z,6.00
2023-04-01T04:03:51.548Z,6.00
2023-04-01T04:06:20.050Z,6.00
2023-04-01T04:08:47.151Z,6.40
2023-04-01T04:11:14.921Z,5.90
2023-04-01T04:13:42.554Z,5.90
2023-04-01T04:16:10.916Z,5.90
2023-04-01T04:18:38.254Z,6.00
2023-04-01T04:21:05.496Z,5.90
2023-04-01T04:23:34.483Z,6.00
2023-04-01T04:26:05.311Z,5.90
2023-04-01T04:28:32.997Z,5.90
2023-04-01T04:31:00.099Z,5.90
2023-04-01T04:33:27.475Z,5.90
2023-04-01T04:35:57.926Z,5.90
2023-04-01T04:38:26.169Z,5.90
2023-04-01T04:40:53.422Z,5.90
2023-04-01T04:43:20.863Z,5.80
2023-04-01T04:45:48.112Z,5.80
2023-04-01T04:48:19.770Z,5.80
2023-04-01T04:50:51.496Z,6.00
2023-04-01T04:53:19.709Z,5.80
2023-04-01T04:55:51.185Z,5.80
2023-04-01T04:58:18.771Z,5.70
2023-04-01T05:00:46.370Z,5.70
2023-04-01T05:03:14.269Z,5.70
2023-04-01T05:05:48.618Z,5.70
2023-04-01T05:08:15.450Z,5.70
2023-04-01T05:10:42.227Z,5.70
2023-04-01T05:13:09.060Z,5.80
2023-04-01T05:15:36.702Z,5.70
2023-04-01T05:18:03.781Z,5.60
2023-04-01T05:20:30.717Z,5.60
2023-04-01T05:22:58.867Z,5.80
2023-04-01T05:25:26.236Z,5.70
2023-04-01T05:27:53.075Z,5.70
2023-04-01T05:30:19.993Z,5.60
2023-04-01T05:32:46.864Z,5.70
2023-04-01T05:35:13.717Z,5.70
2023-04-01T05:37:40.871Z,5.70
2023-04-01T05:40:08.309Z,5.60
2023-04-01T05:42:36.930Z,5.70
2023-04-01T05:45:05.652Z,5.80
2023-04-01T05:47:32.636Z,5.70
2023-04-01T05:49:59.564Z,5.70
2023-04-01T05:52:26.441Z,5.90
2023-04-01T05:54:53.357Z,5.70
2023-04-01T05:57:20.411Z,5.70
2023-04-01T05:59:47.328Z,5.80
2023-04-01T06:02:17.456Z,5.80
2023-04-01T06:04:47.115Z,5.80
2023-04-01T06:07:15.849Z,5.70
2023-04-01T06:09:43.596Z,5.70
2023-04-01T06:12:41.272Z,5.80
2023-04-01T06:15:11.504Z,5.70
2023-04-01T06:17:53.848Z,5.60
2023-04-01T06:20:45.635Z,5.70
2023-04-01T06:23:30.340Z,5.70
2023-04-01T06:26:21.580Z,5.70
2023-04-01T06:29:10.318Z,5.70
2023-04-01T06:31:50.816Z,5.70
2023-04-01T06:34:30.228Z,5.70
2023-04-01T06:37:12.109Z,5.80
2023-04-01T06:39:38.872Z,5.80
2023-04-01T06:42:25.429Z,5.80
2023-04-01T06:45:02.917Z,5.80
2023-04-01T06:47:47.990Z,5.80
2023-04-01T06:50:21.798Z,5.70
2023-04-01T06:53:16.226Z,5.80
2023-04-01T06:56:11.145Z,5.80
2023-04-01T06:58:41.340Z,5.80
2023-04-01T07:01:14.339Z,5.70
2023-04-01T07:04:01.556Z,5.70
2023-04-01T07:06:46.167Z,5.80
2023-04-01T07:09:25.494Z,5.80
2023-04-01T07:11:57.739Z,5.80
2023-04-01T07:14:35.752Z,5.80
2023-04-01T07:17:07.797Z,5.70
2023-04-01T07:20:05.761Z,5.70
2023-04-01T07:22:32.535Z,5.80
2023-04-01T07:25:06.569Z,6.00
2023-04-01T07:27:33.520Z,5.70
2023-04-01T07:30:02.431Z,5.90
2023-04-01T07:32:48.766Z,5.80
2023-04-01T07:35:43.379Z,5.80
2023-04-01T07:38:14.986Z,5.60
2023-04-01T07:40:47.994Z,5.60
2023-04-01T07:43:32.765Z,5.60
2023-04-01T07:46:24.787Z,5.70
2023-04-01T07:49:02.005Z,5.80
2023-04-01T07:51:39.608Z,5.80
2023-04-01T07:54:32.116Z,5.70
2023-04-01T07:57:09.361Z,5.70
2023-04-01T07:59:53.006Z,5.80
2023-04-01T08:02:57.619Z,5.70
2023-04-01T08:05:38.089Z,5.70
2023-04-01T08:08:14.268Z,5.60
2023-04-01T08:10:55.509Z,5.70
2023-04-01T08:13:22.285Z,5.70
2023-04-01T08:16:12.707Z,5.60
2023-04-01T08:18:39.533Z,5.60
2023-04-01T08:21:22.100Z,5.70
2023-04-01T08:23:52.334Z,5.60
2023-04-01T08:26:43.736Z,5.70
2023-04-01T08:29:22.388Z,5.60
2023-04-01T08:32:06.768Z,5.60
2023-04-01T08:34:43.603Z,5.60
2023-04-01T08:37:30.955Z,5.70
2023-04-01T08:40:18.975Z,5.60
2023-04-01T08:43:16.223Z,5.60
2023-04-01T08:46:05.231Z,5.60
2023-04-01T08:48:56.654Z,5.60
2023-04-01T08:51:45.102Z,5.50
2023-04-01T08:54:31.924Z,5.60
2023-04-01T08:57:11.008Z,5.50
2023-04-01T08:59:58.606Z,5.40
2023-04-01T09:02:25.423Z,5.60
2023-04-01T09:05:31.441Z,5.40
2023-04-01T09:07:58.360Z,5.40
2023-04-01T09:10:33.755Z,5.40
2023-04-01T09:13:26.897Z,5.40
2023-04-01T09:16:14.699Z,5.40
2023-04-01T09:18:44.684Z,5.50
2023-04-01T09:21:33.011Z,5.40
2023-04-01T09:24:14.314Z,5.40
2023-04-01T09:27:06.209Z,5.30
2023-04-01T09:29:52.090Z,5.30
2023-04-01T09:33:13.816Z,5.30
2023-04-01T09:35:52.047Z,5.20
2023-04-01T09:38:23.521Z,5.30
2023-04-01T09:40:53.430Z,5.40
2023-04-01T09:43:27.509Z,5.40
2023-04-01T09:46:09.409Z,5.30
2023-04-01T09:48:39.062Z,5.20
2023-04-01T09:51:23.955Z,5.30
2023-04-01T09:53:59.338Z,5.20
2023-04-01T09:56:35.241Z,5.20
2023-04-01T09:59:07.969Z,5.10
2023-04-01T10:01:58.943Z,5.00
2023-04-01T10:04:52.227Z,5.10
2023-04-01T10:07:57.777Z,5.20
2023-04-01T10:10:46.114Z,5.20
2023-04-01T10:13:34.545Z,5.10
2023-04-01T10:16:19.266Z,5.10
2023-04-01T10:18:58.016Z,5.00
2023-04-01T10:22:16.300Z,5.10
2023-04-01T10:24:49.269Z,5.10
2023-04-01T10:27:34.665Z,5.10
2023-04-01T10:30:22.730Z,5.00
2023-04-01T10:32:56.897Z,5.10
2023-04-01T10:35:57.908Z,5.10
2023-04-01T10:39:02.188Z,5.00
2023-04-01T10:42:06.880Z,4.90
2023-04-01T10:45:01.228Z,4.90
2023-04-01T10:47:52.187Z,4.80
2023-04-01T10:50:37.772Z,4.80
2023-04-01T10:53:40.081Z,4.80
2023-04-01T10:56:29.656Z,4.80
2023-04-01T10:59:18.458Z,4.80
2023-04-01T11:02:25.350Z,4.80
2023-04-01T11:05:26.600Z,4.70
2023-04-01T11:08:31.065Z,4.80
2023-04-01T11:11:19.828Z,4.70
2023-04-01T11:13:49.717Z,4.80
2023-04-01T11:16:28.674Z,4.70
2023-04-01T11:19:05.632Z,4.80
2023-04-01T11:21:58.151Z,4.90
2023-04-01T11:24:40.182Z,4.90
2023-04-01T11:28:02.887Z,4.80
2023-04-01T11:30:38.125Z,4.70
2023-04-01T11:33:27.378Z,4.80
2023-04-01T11:36:09.255Z,4.80
2023-04-01T11:38:57.649Z,4.80
2023-04-01T11:41:51.947Z,4.90
2023-04-01T11:44:25.714Z,4.90
2023-04-01T11:47:30.684Z,4.80
2023-04-01T11:50:12.633Z,4.80
2023-04-01T11:53:03.581Z,4.90
2023-04-01T11:55:50.358Z,4.90
2023-04-01T11:58:54.997Z,5.00
2023-04-01T12:01:30.165Z,4.90
2023-04-01T12:04:26.774Z,4.90
2023-04-01T12:07:12.211Z,5.00
2023-04-01T12:10:19.409Z,4.90
2023-04-01T12:13:14.339Z,5.00
2023-04-01T12:16:03.807Z,5.00
2023-04-01T12:18:41.252Z,5.10
2023-04-01T12:22:00.227Z,5.00
2023-04-01T12:24:37.096Z,5.10
2023-04-01T12:27:18.122Z,5.10
2023-04-01T12:30:24.907Z,5.10
2023-04-01T12:33:12.999Z,5.00
2023-04-01T12:36:01.338Z,5.10
2023-04-01T12:38:59.522Z,5.10
2023-04-01T12:41:50.998Z,5.10
2023-04-01T12:44:41.264Z,5.00
2023-04-01T12:47:40.127Z,5.00
2023-04-01T12:50:42.587Z,5.00
2023-04-01T12:53:15.219Z,5.00
2023-04-01T12:55:53.732Z,5.00
2023-04-01T12:58:23.675Z,5.20
2023-04-01T13:01:08.619Z,5.20
2023-04-01T13:04:03.613Z,5.20
2023-04-01T13:06:46.899Z,5.20
2023-04-01T13:09:52.045Z,5.10
2023-04-01T13:12:30.881Z,5.00
2023-04-01T13:15:35.092Z,5.10
2023-04-01T13:18:43.906Z,5.10
2023-04-01T13:21:36.978Z,5.10
2023-04-01T13:24:27.010Z,5.00
2023-04-01T13:27:06.877Z,5.00
2023-04-01T13:29:45.201Z,5.00
2023-04-01T13:32:44.269Z,5.10
2023-04-01T13:35:23.288Z,5.00
2023-04-01T13:37:59.017Z,5.10
2023-04-01T13:40:42.806Z,5.10
2023-04-01T13:43:40.511Z,5.00
2023-04-01T13:46:26.192Z,5.00
2023-04-01T13:49:10.985Z,4.90
2023-04-01T13:51:40.943Z,5.00
2023-04-01T13:54:35.763Z,5.00
2023-04-01T13:57:17.946Z,4.80
2023-04-01T14:00:08.680Z,4.90
2023-04-01T14:03:03.854Z,4.80
2023-04-01T14:05:43.120Z,4.90
2023-04-01T14:08:35.917Z,4.90
2023-04-01T14:11:18.007Z,4.90
2023-04-01T14:14:26.642Z,4.90
2023-04-01T14:17:20.670Z,5.00
2023-04-01T14:19:47.418Z,4.90
2023-04-01T14:22:26.201Z,4.80
2023-04-01T14:25:18.022Z,4.80
2023-04-01T14:28:09.373Z,4.70
2023-04-01T14:30:57.237Z,4.70
2023-04-01T14:34:01.433Z,4.70
2023-04-01T14:37:19.081Z,4.70
2023-04-01T14:40:07.432Z,4.70
2023-04-01T14:42:56.237Z,4.70
2023-04-01T14:46:00.686Z,4.70
2023-04-01T14:48:50.364Z,4.70
2023-04-01T14:51:23.848Z,4.70
2023-04-01T14:54:04.613Z,4.70
2023-04-01T14:57:04.731Z,4.70
2023-04-01T14:59:31.771Z,4.60
2023-04-01T15:02:30.750Z,4.60
2023-04-01T15:05:14.632Z,4.60
2023-04-01T15:08:03.056Z,4.60
2023-04-01T15:10:54.524Z,4.60
2023-04-01T15:13:24.119Z,4.70
2023-04-01T15:16:37.552Z,4.50
2023-04-01T15:19:42.998Z,4.60
2023-04-01T15:22:48.936Z,4.60
2023-04-01T15:25:47.870Z,4.60
2023-04-01T15:28:28.776Z,4.70
2023-04-01T15:31:04.694Z,5.00
2023-04-01T15:33:34.518Z,4.80
2023-04-01T15:36:01.332Z,4.80
2023-04-01T15:38:46.802Z,4.80
2023-04-01T15:41:24.409Z,4.70
2023-04-01T15:43:54.517Z,4.80
2023-04-01T15:46:45.725Z,4.90
2023-04-01T15:49:21.107Z,4.90
2023-04-01T15:52:04.913Z,4.90
2023-04-01T15:55:09.567Z,4.90
2023-04-01T15:58:05.724Z,4.90
2023-04-01T16:00:49.647Z,4.90
2023-04-01T16:03:44.937Z,4.90
2023-04-01T16:06:56.541Z,4.80
2023-04-01T16:09:43.463Z,5.00
2023-04-01T16:13:02.659Z,5.00
2023-04-01T16:15:58.544Z,5.00
2023-04-01T16:18:43.806Z,5.00
2023-04-01T16:21:24.728Z,5.10
2023-04-01T16:23:57.719Z,4.90
2023-04-01T16:26:43.964Z,5.00
2023-04-01T16:29:13.766Z,5.00
2023-04-01T16:32:18.198Z,5.00
2023-04-01T16:35:03.954Z,4.90
2023-04-01T16:37:40.894Z,5.00
2023-04-01T16:40:32.615Z,4.90
2023-04-01T16:43:11.192Z,4.90
2023-04-01T16:46:07.016Z,5.00
2023-04-01T16:49:18.006Z,4.90
2023-04-01T16:51:58.572Z,4.90
2023-04-01T16:54:52.110Z,4.90
2023-04-01T16:57:23.144Z,4.90
2023-04-01T17:00:01.807Z,4.90
2023-04-01T17:02:46.372Z,4.90
2023-04-01T17:05:14.350Z,4.90
2023-04-01T17:07:56.279Z,4.90
2023-04-01T17:10:59.243Z,4.70
2023-04-01T17:13:39.425Z,4.70
2023-04-01T17:16:36.960Z,4.80
2023-04-01T17:19:22.641Z,4.60
2023-04-01T17:22:16.838Z,4.60
2023-04-01T17:25:20.863Z,4.50
2023-04-01T17:28:00.774Z,4.50
2023-04-01T17:30:35.264Z,4.40
2023-04-01T17:33:09.759Z,4.50
2023-04-01T17:36:03.176Z,4.50
2023-04-01T17:39:11.832Z,4.40
2023-04-01T17:41:53.399Z,4.40
2023-04-01T17:44:44.602Z,4.30
2023-04-01T17:47:51.246Z,4.30
2023-04-01T17:50:49.033Z,4.30
2023-04-01T17:53:44.118Z,4.30
2023-04-01T17:56:30.823Z,4.20
2023-04-01T17:59:28.044Z,4.10
2023-04-01T18:02:31.131Z,4.00
2023-04-01T18:05:16.926Z,4.00
2023-04-01T18:08:05.379Z,4.00
2023-04-01T18:10:47.416Z,4.00
2023-04-01T18:13:56.109Z,3.90
2023-04-01T18:16:44.823Z,4.00
2023-04-01T18:19:26.824Z,3.90
2023-04-01T18:22:22.716Z,3.90
2023-04-01T18:25:22.660Z,3.90
2023-04-01T18:28:31.298Z,3.80
2023-04-01T18:31:02.211Z,3.80
2023-04-01T18:33:52.052Z,3.70
2023-04-01T18:36:56.010Z,3.70
2023-04-01T18:39:37.427Z,3.80
2023-04-01T18:42:26.013Z,3.80
2023-04-01T18:45:17.763Z,3.70
2023-04-01T18:47:51.682Z,3.70
2023-04-01T18:50:24.773Z,3.70
2023-04-01T18:52:59.037Z,3.60
2023-04-01T18:55:39.053Z,3.60
2023-04-01T18:58:34.084Z,3.60
2023-04-01T19:01:14.179Z,3.60
2023-04-01T19:04:03.752Z,3.60
2023-04-01T19:06:36.077Z,3.60
2023-04-01T19:09:23.211Z,3.60
2023-04-01T19:12:25.717Z,3.60
2023-04-01T19:15:07.357Z,3.50
2023-04-01T19:17:49.183Z,3.50
2023-04-01T19:20:22.758Z,3.50
2023-04-01T19:23:07.616Z,3.50
2023-04-01T19:25:43.291Z,3.50
2023-04-01T19:28:44.109Z,3.50
2023-04-01T19:31:25.304Z,3.40
2023-04-01T19:34:14.087Z,3.40
2023-04-01T19:37:06.493Z,3.40
2023-04-01T19:40:11.554Z,3.50
2023-04-01T19:43:12.472Z,3.60
2023-04-01T19:45:51.926Z,3.50
2023-04-01T19:48:40.066Z,3.50
2023-04-01T19:51:38.484Z,3.40
2023-04-01T19:54:33.840Z,3.40
2023-04-01T19:57:13.541Z,3.40
2023-04-01T19:59:40.426Z,3.40
2023-04-01T20:02:12.134Z,3.30
2023-04-01T20:04:42.479Z,3.30
2023-04-01T20:07:17.671Z,3.40
2023-04-01T20:10:11.045Z,3.40
2023-04-01T20:12:44.068Z,3.40
2023-04-01T20:15:28.507Z,3.50
2023-04-01T20:17:58.546Z,3.40
2023-04-01T20:20:28.936Z,3.30
2023-04-01T20:23:34.355Z,3.40
2023-04-01T20:26:13.037Z,3.40
2023-04-01T20:28:49.678Z,3.30
2023-04-01T20:31:28.517Z,3.40
2023-04-01T20:33:58.704Z,3.40
2023-04-01T20:36:48.729Z,3.40
2023-04-01T20:39:40.485Z,3.50
2023-04-01T20:42:27.744Z,3.50
2023-04-01T20:45:29.009Z,3.50
2023-04-01T20:48:13.219Z,3.50
2023-04-01T20:51:04.457Z,3.50
2023-04-01T20:53:42.760Z,3.50
2023-04-01T20:56:27.688Z,3.50
2023-04-01T20:59:25.169Z,3.50
2023-04-01T21:02:10.940Z,3.60
2023-04-01T21:05:26.333Z,3.70
2023-04-01T21:08:17.262Z,3.50
2023-04-01T21:10:46.957Z,3.50
2023-04-01T21:13:16.884Z,3.50
2023-04-01T21:15:52.685Z,3.50
2023-04-01T21:18:32.404Z,3.50
2023-04-01T21:21:05.407Z,3.50
2023-04-01T21:23:39.398Z,3.50
2023-04-01T21:26:08.906Z,3.50
2023-04-01T21:29:10.865Z,3.50
2023-04-01T21:32:05.937Z,3.50
2023-04-01T21:34:47.657Z,3.60
2023-04-01T21:37:34.660Z,3.50
2023-04-01T21:40:28.618Z,3.50
2023-04-01T21:43:17.276Z,3.50
2023-04-01T21:46:17.401Z,3.60
2023-04-01T21:49:21.935Z,3.50
2023-04-01T21:52:19.805Z,3.50
2023-04-01T21:55:16.803Z,3.50
2023-04-01T21:58:04.756Z,3.50
2023-04-01T22:00:47.411Z,3.50
2023-04-01T22:03:51.765Z,3.50
2023-04-01T22:07:00.926Z,3.60
2023-04-01T22:09:36.196Z,3.60
2023-04-01T22:12:27.634Z,3.50
2023-04-01T22:14:59.159Z,3.50
2023-04-01T22:17:31.551Z,3.50
2023-04-01T22:20:29.137Z,3.50
2023-04-01T22:23:05.011Z,3.50
2023-04-01T22:25:43.152Z,3.50
2023-04-01T22:28:33.576Z,3.60
2023-04-01T22:31:02.596Z,3.50
2023-04-01T22:33:51.693Z,3.40
2023-04-01T22:36:30.543Z,3.50
2023-04-01T22:39:14.658Z,3.50
2023-04-01T22:41:53.357Z,3.50
2023-04-01T22:44:26.568Z,3.40
2023-04-01T22:47:16.427Z,3.40
2023-04-01T22:49:51.522Z,3.50
2023-04-01T22:52:34.346Z,3.50
2023-04-01T22:55:09.085Z,3.50
2023-04-01T22:58:00.936Z,3.40
2023-04-01T23:00:35.109Z,3.40
2023-04-01T23:03:08.213Z,3.40
2023-04-01T23:05:40.593Z,3.50
2023-04-01T23:08:48.400Z,3.50
2023-04-01T23:11:23.322Z,3.40
2023-04-01T23:14:19.480Z,3.40
2023-04-01T23:16:54.561Z,3.50
2023-04-01T23:19:49.462Z,3.60
2023-04-01T23:22:51.362Z,3.50
2023-04-01T23:25:39.483Z,3.40
2023-04-01T23:28:15.477Z,3.40
2023-04-01T23:30:42.437Z,3.40
2023-04-01T23:33:27.422Z,3.40
2023-04-01T23:36:13.278Z,3.40
2023-04-01T23:38:42.766Z,3.40
2023-04-01T23:41:23.346Z,3.30
2023-04-01T23:44:02.506Z,3.40
2023-04-01T23:46:31.952Z,3.50
2023-04-01T23:48:59.183Z,3.40
2023-04-01T23:51:56.948Z,3.40
2023-04-01T23:54:53.658Z,3.20
2023-04-01T23:57:25.093Z,3.30
